Time,TemperatureF,DewpointF,PressureIn,WindDirection,WindDirectionDegrees,WindSpeedMPH,WindSpeedGustMPH,Humidity,HourlyPrecipIn,Conditions,Clouds,dailyrainin,SoftwareType,DateUTC
2013-10-10 00:04:00,52.9,47.6,30.11,North,0,0.0,0.0,82,0.00,,,0.00,WUHU21623XXSP,2013-10-10 05:04:00,
2013-10-10 00:09:00,52.7,47.4,30.11,North,0,0.0,0.0,82,0.00,,,0.00,WUHU21623XXSP,2013-10-10 05:09:00,
2013-10-10 00:14:00,52.7,47.4,30.11,North,0,0.0,0.0,82,0.00,,,0.00,WUHU21623XXSP,2013-10-10 05:14:00,
2013-10-10 00:19:00,52.5,47.2,30.10,North,0,0.0,0.0,82,0.00,,,0.00,WUHU21623XXSP,2013-10-10 05:19:00,
2013-10-10 00:24:00,52.3,47.3,30.10,North,0,0.0,0.0,83,0.00,,,0.00,WUHU21623XXSP,2013-10-10 05:24:00,
2013-10-10 00:29:00,52.3,47.3,30.11,North,0,0.0,0.0,83,0.00,,,0.00,WUHU21623XXSP,2013-10-10 05:29:00,
2013-10-10 00:34:00,52.3,47.3,30.10,North,0,0.0,0.0,83,0.00,,,0.00,WUHU21623XXSP,2013-10-10 05:34:00,
2013-10-10 00:39:00,52.2,47.3,30.11,North,0,0.0,0.0,83,0.00,,,0.00,WUHU21623XXSP,2013-10-10 05:39:00,
2013-10-10 00:44:00,52.2,47.1,30.11,North,0,0.0,0.0,83,0.00,,,0.00,WUHU21623XXSP,2013-10-10 05:44:00,
2013-10-10 00:49:00,52.0,47.0,30.11,North,0,0.0,0.0,83,0.00,,,0.00,WUHU21623XXSP,2013-10-10 05:49:00,
2013-10-10 00:54:00,52.0,47.0,30.11,North,0,0.0,0.0,83,0.00,,,0.00,WUHU21623XXSP,2013-10-10 05:54:00,
2013-10-10 00:59:00,52.0,47.0,30.11,North,0,0.0,0.0,83,0.00,,,0.00,WUHU21623XXSP,2013-10-10 05:59:00,
2013-10-10 01:04:00,51.8,47.1,30.11,North,0,0.0,0.0,84,0.00,,,0.00,WUHU21623XXSP,2013-10-10 06:04:00,
2013-10-10 01:09:00,51.8,47.1,30.11,North,0,0.0,0.0,84,0.00,,,0.00,WUHU21623XXSP,2013-10-10 06:09:00,
2013-10-10 01:14:00,51.6,46.9,30.11,North,0,0.0,0.0,84,0.00,,,0.00,WUHU21623XXSP,2013-10-10 06:14:00,
2013-10-10 01:19:00,51.6,46.9,30.11,North,0,0.0,0.0,84,0.00,,,0.00,WUHU21623XXSP,2013-10-10 06:19:00,
2013-10-10 01:24:00,51.6,46.7,30.11,North,0,0.0,0.0,84,0.00,,,0.00,WUHU21623XXSP,2013-10-10 06:24:00,
2013-10-10 01:29:00,51.4,46.7,30.11,North,0,0.0,0.0,84,0.00,,,0.00,WUHU21623XXSP,2013-10-10 06:29:00,
2013-10-10 01:34:00,51.4,46.7,30.11,North,0,0.0,0.0,84,0.00,,,0.00,WUHU21623XXSP,2013-10-10 06:34:00,
2013-10-10 01:39:00,51.3,46.5,30.11,North,0,0.0,0.0,84,0.00,,,0.00,WUHU21623XXSP,2013-10-10 06:39:00,
2013-10-10 01:44:00,51.3,46.5,30.11,North,0,0.0,0.0,85,0.00,,,0.00,WUHU21623XXSP,2013-10-10 06:44:00,
2013-10-10 01:49:00,51.1,46.7,30.11,North,0,0.0,0.0,85,0.00,,,0.00,WUHU21623XXSP,2013-10-10 06:49:00,
2013-10-10 01:54:00,51.3,46.7,30.11,North,0,0.0,0.0,85,0.00,,,0.00,WUHU21623XXSP,2013-10-10 06:54:00,
2013-10-10 01:59:00,51.3,46.9,30.11,North,0,0.0,0.0,85,0.00,,,0.00,WUHU21623XXSP,2013-10-10 06:59:00,
2013-10-10 02:04:00,51.3,47.2,30.11,North,0,0.0,0.0,86,0.00,,,0.00,WUHU21623XXSP,2013-10-10 07:04:00,
2013-10-10 02:09:00,51.1,46.7,30.11,North,0,0.0,0.0,85,0.00,,,0.00,WUHU21623XXSP,2013-10-10 07:09:00,
2013-10-10 02:14:00,51.3,47.2,30.11,North,0,0.0,0.0,86,0.00,,,0.00,WUHU21623XXSP,2013-10-10 07:14:00,
2013-10-10 02:19:00,51.1,46.7,30.12,North,0,0.0,0.0,85,0.00,,,0.00,WUHU21623XXSP,2013-10-10 07:19:00,
2013-10-10 02:24:00,51.1,46.7,30.12,North,0,0.0,0.0,85,0.00,,,0.00,WUHU21623XXSP,2013-10-10 07:24:00,
2013-10-10 02:29:00,51.1,46.7,30.12,North,0,0.0,0.0,85,0.00,,,0.00,WUHU21623XXSP,2013-10-10 07:29:00,
2013-10-10 02:34:00,51.1,46.7,30.12,North,0,0.0,0.0,85,0.00,,,0.00,WUHU21623XXSP,2013-10-10 07:34:00,
2013-10-10 02:39:00,50.9,46.5,30.11,North,0,0.0,0.0,85,0.00,,,0.00,WUHU21623XXSP,2013-10-10 07:39:00,
2013-10-10 02:44:00,50.9,46.5,30.11,North,0,0.0,0.0,86,0.00,,,0.00,WUHU21623XXSP,2013-10-10 07:44:00,
2013-10-10 02:49:00,50.7,46.8,30.11,North,0,0.0,0.0,86,0.00,,,0.00,WUHU21623XXSP,2013-10-10 07:49:00,
2013-10-10 11:56:00,73.6,58.8,30.12,North,0,0.0,0.0,60,0.00,,,0.00,WUHU21623XXSP,2013-10-10 16:56:00,
2013-10-10 12:01:00,73.8,59.0,30.12,North,0,0.0,0.0,60,0.00,,,0.00,WUHU21623XXSP,2013-10-10 17:01:00,
2013-10-10 12:06:00,74.1,58.9,30.12,North,0,0.0,0.0,59,0.00,,,0.00,WUHU21623XXSP,2013-10-10 17:06:00,
2013-10-10 12:11:00,74.3,58.9,30.12,North,0,0.0,0.0,59,0.00,,,0.00,WUHU21623XXSP,2013-10-10 17:11:00,
2013-10-10 12:16:00,74.5,58.7,30.12,North,0,0.0,0.0,58,0.00,,,0.00,WUHU21623XXSP,2013-10-10 17:16:00,
2013-10-10 12:21:00,74.7,58.2,30.12,North,0,0.0,0.0,57,0.00,,,0.00,WUHU21623XXSP,2013-10-10 17:21:00,
2013-10-10 12:26:00,74.8,58.6,30.12,North,0,0.0,0.0,57,0.00,,,0.00,WUHU21623XXSP,2013-10-10 17:26:00,
2013-10-10 12:31:00,74.8,58.1,30.11,North,0,0.0,0.0,56,0.00,,,0.00,WUHU21623XXSP,2013-10-10 17:31:00,
2013-10-10 12:36:00,75.0,58.2,30.11,North,0,0.0,0.0,56,0.00,,,0.00,WUHU21623XXSP,2013-10-10 17:36:00,
2013-10-10 12:42:00,75.0,58.2,30.10,North,0,0.0,0.0,56,0.00,,,0.00,WUHU21623XXSP,2013-10-10 17:42:00,
2013-10-10 12:47:00,75.4,58.1,30.10,North,0,0.0,0.0,55,0.00,,,0.00,WUHU21623XXSP,2013-10-10 17:47:00,
2013-10-10 12:52:00,75.6,58.2,30.10,North,0,0.0,0.0,55,0.00,,,0.00,WUHU21623XXSP,2013-10-10 17:52:00,
2013-10-10 12:57:00,75.9,58.1,30.10,North,0,0.0,0.0,54,0.00,,,0.00,WUHU21623XXSP,2013-10-10 17:57:00,
2013-10-10 13:02:00,75.9,58.1,30.10,North,0,0.0,0.0,54,0.00,,,0.00,WUHU21623XXSP,2013-10-10 18:02:00,
2013-10-10 13:07:00,76.1,58.2,30.10,North,0,0.0,0.0,54,0.00,,,0.00,WUHU21623XXSP,2013-10-10 18:07:00,
2013-10-10 13:12:00,76.5,57.5,30.09,North,0,0.0,0.0,52,0.00,,,0.00,WUHU21623XXSP,2013-10-10 18:12:00,
2013-10-10 13:17:00,76.3,57.4,30.09,North,0,0.0,0.0,52,0.00,,,0.00,WUHU21623XXSP,2013-10-10 18:17:00,
2013-10-10 13:22:00,76.5,57.7,30.08,North,0,0.0,0.0,51,0.00,,,0.00,WUHU21623XXSP,2013-10-10 18:22:00,
2013-10-10 13:27:00,76.8,57.9,30.08,North,0,0.0,0.0,52,0.00,,,0.00,WUHU21623XXSP,2013-10-10 18:27:00,
2013-10-10 13:32:00,76.8,57.4,30.07,North,0,0.0,0.0,51,0.00,,,0.00,WUHU21623XXSP,2013-10-10 18:32:00,
2013-10-10 13:37:00,76.8,57.4,30.07,North,0,0.0,0.0,51,0.00,,,0.00,WUHU21623XXSP,2013-10-10 18:37:00,
2013-10-10 13:42:00,76.8,56.9,30.07,North,0,0.0,0.0,50,0.00,,,0.00,WUHU21623XXSP,2013-10-10 18:42:00,
2013-10-10 13:47:00,77.0,57.5,30.07,North,0,0.0,0.0,51,0.00,,,0.00,WUHU21623XXSP,2013-10-10 18:47:00,
2013-10-10 13:52:00,77.4,57.8,30.07,North,0,0.0,0.0,51,0.00,,,0.00,WUHU21623XXSP,2013-10-10 18:52:00,
2013-10-10 13:57:00,77.5,57.5,30.06,North,0,0.0,0.0,50,0.00,,,0.00,WUHU21623XXSP,2013-10-10 18:57:00,
2013-10-10 14:02:00,77.5,57.5,30.06,North,0,0.0,0.0,50,0.00,,,0.00,WUHU21623XXSP,2013-10-10 19:02:00,
2013-10-10 14:07:00,77.5,57.5,30.06,North,0,0.0,0.0,50,0.00,,,0.00,WUHU21623XXSP,2013-10-10 19:07:00,
2013-10-10 14:12:00,77.5,57.5,30.05,North,0,0.0,0.0,50,0.00,,,0.00,WUHU21623XXSP,2013-10-10 19:12:00,
2013-10-10 14:17:00,77.7,57.7,30.05,North,0,0.0,0.0,50,0.00,,,0.00,WUHU21623XXSP,2013-10-10 19:17:00,
2013-10-10 14:22:00,77.7,57.7,30.05,North,0,0.0,0.0,50,0.00,,,0.00,WUHU21623XXSP,2013-10-10 19:22:00,
2013-10-10 14:27:00,78.1,57.4,30.05,North,0,0.0,0.0,49,0.00,,,0.00,WUHU21623XXSP,2013-10-10 19:27:00,
2013-10-10 14:32:00,78.1,57.4,30.05,North,0,0.0,0.0,49,0.00,,,0.00,WUHU21623XXSP,2013-10-10 19:32:00,
2013-10-10 14:37:00,78.1,57.4,30.05,North,0,0.0,0.0,49,0.00,,,0.00,WUHU21623XXSP,2013-10-10 19:37:00,
2013-10-10 14:42:00,78.1,57.4,30.05,North,0,0.0,0.0,49,0.00,,,0.00,WUHU21623XXSP,2013-10-10 19:42:00,
2013-10-10 14:47:00,78.1,56.2,30.05,North,0,0.0,0.0,47,0.00,,,0.00,WUHU21623XXSP,2013-10-10 19:47:00,
2013-10-10 14:52:00,78.4,56.5,30.05,North,0,0.0,0.0,47,0.00,,,0.00,WUHU21623XXSP,2013-10-10 19:52:00,
2013-10-10 14:57:00,78.4,55.9,30.05,North,0,0.0,0.0,46,0.00,,,0.00,WUHU21623XXSP,2013-10-10 19:57:00,
2013-10-10 15:02:00,78.4,55.9,30.04,North,0,0.0,0.0,46,0.00,,,0.00,WUHU21623XXSP,2013-10-10 20:02:00,
2013-10-10 15:07:00,78.1,55.5,30.04,North,0,0.0,0.0,46,0.00,,,0.00,WUHU21623XXSP,2013-10-10 20:07:00,
2013-10-10 15:12:00,78.3,56.2,30.04,North,0,0.0,0.0,47,0.00,,,0.00,WUHU21623XXSP,2013-10-10 20:12:00,
2013-10-10 15:17:00,78.4,56.3,30.04,North,0,0.0,0.0,47,0.00,,,0.00,WUHU21623XXSP,2013-10-10 20:17:00,
2013-10-10 15:22:00,78.6,55.4,30.04,North,0,0.0,0.0,45,0.00,,,0.00,WUHU21623XXSP,2013-10-10 20:22:00,
2013-10-10 15:27:00,78.4,55.4,30.04,North,0,0.0,0.0,45,0.00,,,0.00,WUHU21623XXSP,2013-10-10 20:27:00,
2013-10-10 15:32:00,78.4,55.3,30.03,North,0,0.0,0.0,45,0.00,,,0.00,WUHU21623XXSP,2013-10-10 20:32:00,
2013-10-10 15:37:00,78.6,55.4,30.04,North,0,0.0,0.0,45,0.00,,,0.00,WUHU21623XXSP,2013-10-10 20:37:00,
2013-10-10 15:42:00,78.6,54.8,30.04,North,0,0.0,0.0,44,0.00,,,0.00,WUHU21623XXSP,2013-10-10 20:42:00,
2013-10-10 15:47:00,78.6,54.8,30.03,North,0,0.0,0.0,44,0.00,,,0.00,WUHU21623XXSP,2013-10-10 20:47:00,
2013-10-10 15:52:00,78.6,55.4,30.03,North,0,0.0,0.0,44,0.00,,,0.00,WUHU21623XXSP,2013-10-10 20:52:00,
2013-10-10 15:57:00,78.4,54.6,30.03,North,0,0.0,0.0,44,0.00,,,0.00,WUHU21623XXSP,2013-10-10 20:57:00,
2013-10-10 16:02:00,78.4,54.6,30.03,North,0,0.0,0.0,44,0.00,,,0.00,WUHU21623XXSP,2013-10-10 21:02:00,
2013-10-10 16:07:00,78.1,54.9,30.02,North,0,0.0,0.0,45,0.00,,,0.00,WUHU21623XXSP,2013-10-10 21:07:00,
2013-10-10 16:12:00,78.1,54.9,30.02,North,0,0.0,0.0,45,0.00,,,0.00,WUHU21623XXSP,2013-10-10 21:12:00,
2013-10-10 16:17:00,78.1,54.9,30.02,North,0,0.0,0.0,45,0.00,,,0.00,WUHU21623XXSP,2013-10-10 21:17:00,
2013-10-10 16:22:00,78.1,54.9,30.02,North,0,0.0,0.0,45,0.00,,,0.00,WUHU21623XXSP,2013-10-10 21:22:00,
2013-10-10 16:27:00,78.1,54.9,30.02,North,0,0.0,0.0,45,0.00,,,0.00,WUHU21623XXSP,2013-10-10 21:27:00,
2013-10-10 16:32:00,78.1,54.9,30.02,North,0,0.0,0.0,45,0.00,,,0.00,WUHU21623XXSP,2013-10-10 21:32:00,
2013-10-10 16:37:00,78.1,54.9,30.02,North,0,0.0,0.0,45,0.00,,,0.00,WUHU21623XXSP,2013-10-10 21:37:00,
2013-10-10 16:42:00,78.1,54.9,30.02,North,0,0.0,0.0,45,0.00,,,0.00,WUHU21623XXSP,2013-10-10 21:42:00,
2013-10-10 16:47:00,78.1,54.9,30.02,North,0,0.0,0.0,45,0.00,,,0.00,WUHU21623XXSP,2013-10-10 21:47:00,
2013-10-10 16:52:00,77.9,54.8,30.03,North,0,0.0,0.0,45,0.00,,,0.00,WUHU21623XXSP,2013-10-10 21:52:00,
2013-10-10 16:57:00,77.9,54.8,30.02,North,0,0.0,0.0,45,0.00,,,0.00,WUHU21623XXSP,2013-10-10 21:57:00,
2013-10-10 17:02:00,78.1,54.9,30.02,North,0,0.0,0.0,45,0.00,,,0.00,WUHU21623XXSP,2013-10-10 22:02:00,
2013-10-10 17:07:00,77.9,54.8,30.02,North,0,0.0,0.0,45,0.00,,,0.00,WUHU21623XXSP,2013-10-10 22:07:00,
2013-10-10 17:12:00,77.9,54.8,30.02,North,0,0.0,0.0,45,0.00,,,0.00,WUHU21623XXSP,2013-10-10 22:12:00,
2013-10-10 17:17:00,77.7,55.2,30.02,North,0,0.0,0.0,46,0.00,,,0.00,WUHU21623XXSP,2013-10-10 22:17:00,
2013-10-10 17:22:00,77.5,55.1,30.02,North,0,0.0,0.0,46,0.00,,,0.00,WUHU21623XXSP,2013-10-10 22:22:00,
2013-10-10 17:27:00,77.5,55.1,30.01,North,0,0.0,0.0,46,0.00,,,0.00,WUHU21623XXSP,2013-10-10 22:27:00,
2013-10-10 17:32:00,77.2,54.7,30.01,North,0,0.0,0.0,46,0.00,,,0.00,WUHU21623XXSP,2013-10-10 22:32:00,
2013-10-10 17:37:00,77.0,55.2,30.01,North,0,0.0,0.0,47,0.00,,,0.00,WUHU21623XXSP,2013-10-10 22:37:00,
2013-10-10 17:42:00,76.8,55.0,30.01,North,0,0.0,0.0,47,0.00,,,0.00,WUHU21623XXSP,2013-10-10 22:42:00,
2013-10-10 17:47:00,76.3,55.1,30.01,North,0,0.0,0.0,48,0.00,,,0.00,WUHU21623XXSP,2013-10-10 22:47:00,
2013-10-10 17:52:00,75.9,54.8,30.01,North,0,0.0,0.0,48,0.00,,,0.00,WUHU21623XXSP,2013-10-10 22:52:00,
2013-10-10 17:57:00,75.6,54.5,30.01,North,0,0.0,0.0,48,0.00,,,0.00,WUHU21623XXSP,2013-10-10 22:57:00,
2013-10-10 18:02:00,75.4,55.0,30.01,North,0,0.0,0.0,49,0.00,,,0.00,WUHU21623XXSP,2013-10-10 23:02:00,
2013-10-10 18:07:00,74.8,54.4,30.00,North,0,0.0,0.0,49,0.00,,,0.00,WUHU21623XXSP,2013-10-10 23:07:00,
2013-10-10 18:12:00,74.3,54.7,30.01,North,0,0.0,0.0,50,0.00,,,0.00,WUHU21623XXSP,2013-10-10 23:12:00,
2013-10-10 18:17:00,73.9,54.1,30.01,North,0,0.0,0.0,50,0.00,,,0.00,WUHU21623XXSP,2013-10-10 23:17:00,
2013-10-10 18:22:00,73.2,53.9,30.01,North,0,0.0,0.0,51,0.00,,,0.00,WUHU21623XXSP,2013-10-10 23:22:00,
2013-10-10 18:27:00,73.0,53.8,30.01,North,0,0.0,0.0,51,0.00,,,0.00,WUHU21623XXSP,2013-10-10 23:27:00,
2013-10-10 18:32:00,72.5,53.8,30.01,North,0,0.0,0.0,52,0.00,,,0.00,WUHU21623XXSP,2013-10-10 23:32:00,
2013-10-10 18:37:00,72.0,53.8,30.00,North,0,0.0,0.0,53,0.00,,,0.00,WUHU21623XXSP,2013-10-10 23:37:00,
2013-10-10 18:42:00,71.4,53.3,30.00,North,0,0.0,0.0,53,0.00,,,0.00,WUHU21623XXSP,2013-10-10 23:42:00,
2013-10-10 18:47:00,70.9,53.3,30.00,North,0,0.0,0.0,54,0.00,,,0.00,WUHU21623XXSP,2013-10-10 23:47:00,
2013-10-10 18:52:00,70.3,53.4,30.00,North,0,0.0,0.0,55,0.00,,,0.00,WUHU21623XXSP,2013-10-10 23:52:00,
2013-10-10 18:57:00,69.8,53.4,30.00,North,0,0.0,0.0,56,0.00,,,0.00,WUHU21623XXSP,2013-10-10 23:57:00,
2013-10-10 19:02:00,69.1,53.2,30.00,North,0,0.0,0.0,57,0.00,,,0.00,WUHU21623XXSP,2013-10-11 00:02:00,
2013-10-10 19:07:00,68.7,53.3,30.00,North,0,0.0,0.0,58,0.00,,,0.00,WUHU21623XXSP,2013-10-11 00:07:00,
2013-10-10 19:12:00,68.2,53.6,30.00,North,0,0.0,0.0,59,0.00,,,0.00,WUHU21623XXSP,2013-10-11 00:12:00,
2013-10-10 19:17:00,67.8,53.4,30.00,North,0,0.0,0.0,60,0.00,,,0.00,WUHU21623XXSP,2013-10-11 00:17:00,
2013-10-10 19:22:00,67.3,53.4,30.00,North,0,0.0,0.0,61,0.00,,,0.00,WUHU21623XXSP,2013-10-11 00:22:00,
2013-10-10 19:27:00,66.9,53.5,30.00,North,0,0.0,0.0,62,0.00,,,0.00,WUHU21623XXSP,2013-10-11 00:27:00,
2013-10-10 19:32:00,66.4,53.0,30.00,North,0,0.0,0.0,62,0.00,,,0.00,WUHU21623XXSP,2013-10-11 00:32:00,
2013-10-10 19:37:00,66.0,53.0,30.00,North,0,0.0,0.0,63,0.00,,,0.00,WUHU21623XXSP,2013-10-11 00:37:00,
2013-10-10 19:42:00,65.8,52.9,30.00,North,0,0.0,0.0,63,0.00,,,0.00,WUHU21623XXSP,2013-10-11 00:42:00,
2013-10-10 19:47:00,65.5,52.9,30.00,North,0,0.0,0.0,64,0.00,,,0.00,WUHU21623XXSP,2013-10-11 00:47:00,
2013-10-10 19:52:00,65.1,53.2,30.00,North,0,0.0,0.0,65,0.00,,,0.00,WUHU21623XXSP,2013-10-11 00:52:00,
2013-10-10 19:57:00,64.9,53.3,30.00,North,0,0.0,0.0,66,0.00,,,0.00,WUHU21623XXSP,2013-10-11 00:57:00,
2013-10-10 20:02:00,64.6,53.4,30.00,North,0,0.0,0.0,67,0.00,,,0.00,WUHU21623XXSP,2013-10-11 01:02:00,
2013-10-10 20:07:00,64.2,53.0,30.00,North,0,0.0,0.0,67,0.00,,,0.00,WUHU21623XXSP,2013-10-11 01:07:00,
2013-10-10 20:12:00,64.2,53.0,30.00,North,0,0.0,0.0,67,0.00,,,0.00,WUHU21623XXSP,2013-10-11 01:12:00,
2013-10-10 20:17:00,63.7,52.9,30.00,North,0,0.0,0.0,68,0.00,,,0.00,WUHU21623XXSP,2013-10-11 01:17:00,
2013-10-10 20:22:00,63.7,53.3,30.00,North,0,0.0,0.0,69,0.00,,,0.00,WUHU21623XXSP,2013-10-11 01:22:00,
2013-10-10 20:27:00,63.3,53.2,30.00,North,0,0.0,0.0,69,0.00,,,0.00,WUHU21623XXSP,2013-10-11 01:27:00,
2013-10-10 20:32:00,63.1,52.8,30.00,North,0,0.0,0.0,70,0.00,,,0.00,WUHU21623XXSP,2013-10-11 01:32:00,
2013-10-10 20:37:00,63.0,53.1,30.00,North,0,0.0,0.0,70,0.00,,,0.00,WUHU21623XXSP,2013-10-11 01:37:00,
2013-10-10 20:42:00,62.8,52.9,30.00,North,0,0.0,0.0,70,0.00,,,0.00,WUHU21623XXSP,2013-10-11 01:42:00,
2013-10-10 20:47:00,62.4,53.1,30.00,North,0,0.0,0.0,71,0.00,,,0.00,WUHU21623XXSP,2013-10-11 01:47:00,
2013-10-10 20:52:00,62.4,52.9,30.00,North,0,0.0,0.0,71,0.00,,,0.00,WUHU21623XXSP,2013-10-11 01:52:00,
2013-10-10 20:57:00,62.2,52.7,30.00,North,0,0.0,0.0,71,0.00,,,0.00,WUHU21623XXSP,2013-10-11 01:57:00,
2013-10-10 21:02:00,61.9,52.6,30.00,North,0,0.0,0.0,71,0.00,,,0.00,WUHU21623XXSP,2013-10-11 02:02:00,
2013-10-10 21:07:00,61.7,52.4,30.00,North,0,0.0,0.0,72,0.00,,,0.00,WUHU21623XXSP,2013-10-11 02:07:00,
2013-10-10 21:12:00,61.5,52.6,30.00,North,0,0.0,0.0,72,0.00,,,0.00,WUHU21623XXSP,2013-10-11 02:12:00,
2013-10-10 21:17:00,61.3,52.6,30.00,North,0,0.0,0.0,73,0.00,,,0.00,WUHU21623XXSP,2013-10-11 02:17:00,
2013-10-10 21:22:00,61.2,52.5,30.00,North,0,0.0,0.0,73,0.00,,,0.00,WUHU21623XXSP,2013-10-11 02:22:00,
2013-10-10 21:27:00,61.0,52.7,30.00,North,0,0.0,0.0,74,0.00,,,0.00,WUHU21623XXSP,2013-10-11 02:27:00,
2013-10-10 21:32:00,60.8,52.5,30.00,North,0,0.0,0.0,74,0.00,,,0.00,WUHU21623XXSP,2013-10-11 02:32:00,
2013-10-10 21:37:00,60.6,52.3,30.00,North,0,0.0,0.0,74,0.00,,,0.00,WUHU21623XXSP,2013-10-11 02:37:00,
2013-10-10 21:42:00,60.6,52.7,30.00,North,0,0.0,0.0,75,0.00,,,0.00,WUHU21623XXSP,2013-10-11 02:42:00,
2013-10-10 21:47:00,60.6,52.7,30.00,North,0,0.0,0.0,75,0.00,,,0.00,WUHU21623XXSP,2013-10-11 02:47:00,
2013-10-10 21:52:00,60.4,52.7,30.00,North,0,0.0,0.0,75,0.00,,,0.00,WUHU21623XXSP,2013-10-11 02:52:00,
2013-10-10 21:57:00,60.4,52.5,30.00,North,0,0.0,0.0,75,0.00,,,0.00,WUHU21623XXSP,2013-10-11 02:57:00,
2013-10-10 22:02:00,60.4,52.5,30.00,North,0,0.0,0.0,75,0.00,,,0.00,WUHU21623XXSP,2013-10-11 03:02:00,
2013-10-10 22:07:00,60.4,52.5,30.00,North,0,0.0,0.0,75,0.00,,,0.00,WUHU21623XXSP,2013-10-11 03:07:00,
2013-10-10 22:12:00,60.4,52.5,30.00,North,0,0.0,0.0,75,0.00,,,0.00,WUHU21623XXSP,2013-10-11 03:12:00,
2013-10-10 22:17:00,60.4,52.5,30.00,North,0,0.0,0.0,75,0.00,,,0.00,WUHU21623XXSP,2013-10-11 03:17:00,
2013-10-10 22:22:00,60.4,52.5,30.00,North,0,0.0,0.0,75,0.00,,,0.00,WUHU21623XXSP,2013-10-11 03:22:00,
2013-10-10 22:27:00,60.4,52.5,30.00,North,0,0.0,0.0,75,0.00,,,0.00,WUHU21623XXSP,2013-10-11 03:27:00,
2013-10-10 22:32:00,60.4,52.5,30.00,North,0,0.0,0.0,76,0.00,,,0.00,WUHU21623XXSP,2013-10-11 03:32:00,
2013-10-10 22:37:00,60.4,52.9,30.00,North,0,0.0,0.0,76,0.00,,,0.00,WUHU21623XXSP,2013-10-11 03:37:00,
2013-10-10 22:42:00,60.4,52.9,30.00,North,0,0.0,0.0,76,0.00,,,0.00,WUHU21623XXSP,2013-10-11 03:42:00,
2013-10-10 22:47:00,60.6,53.1,30.00,North,0,0.0,0.0,76,0.00,,,0.00,WUHU21623XXSP,2013-10-11 03:47:00,
2013-10-10 22:52:00,60.6,53.1,30.00,North,0,0.0,0.0,76,0.00,,,0.00,WUHU21623XXSP,2013-10-11 03:52:00,
2013-10-10 22:57:00,60.6,53.1,30.00,North,0,0.0,0.0,76,0.00,,,0.00,WUHU21623XXSP,2013-10-11 03:57:00,
2013-10-10 23:02:00,60.6,53.1,30.00,North,0,0.0,0.0,76,0.00,,,0.00,WUHU21623XXSP,2013-10-11 04:02:00,
2013-10-10 23:05:00,60.6,53.1,30.00,North,0,0.0,0.0,76,0.00,,,0.00,WUHU21623XXSP,2013-10-11 04:05:00,
2013-10-10 23:07:00,60.6,53.1,30.00,North,0,0.0,0.0,76,0.00,,,0.00,WUHU21623XXSP,2013-10-11 04:07:00,
2013-10-10 23:10:00,60.6,53.1,30.00,North,0,0.0,0.0,76,0.00,,,0.00,WUHU21623XXSP,2013-10-11 04:10:00,
2013-10-10 23:15:00,60.6,53.1,30.00,North,0,0.0,0.0,76,0.00,,,0.00,WUHU21623XXSP,2013-10-11 04:15:00,
2013-10-10 23:17:00,60.6,53.1,30.00,North,0,0.0,0.0,76,0.00,,,0.00,WUHU21623XXSP,2013-10-11 04:17:00,
2013-10-10 23:22:00,60.4,52.9,30.00,North,0,0.0,0.0,76,0.00,,,0.00,WUHU21623XXSP,2013-10-11 04:22:00,
2013-10-10 23:27:00,60.4,53.2,30.00,North,0,0.0,0.0,77,0.00,,,0.00,WUHU21623XXSP,2013-10-11 04:27:00,
2013-10-10 23:32:00,60.1,52.9,30.00,North,0,0.0,0.0,77,0.00,,,0.00,WUHU21623XXSP,2013-10-11 04:32:00,
2013-10-10 23:35:00,60.1,52.9,30.00,North,0,0.0,0.0,77,0.00,,,0.00,WUHU21623XXSP,2013-10-11 04:35:00,
2013-10-10 23:40:00,59.9,52.7,30.00,North,0,0.0,0.0,77,0.00,,,0.00,WUHU21623XXSP,2013-10-11 04:40:00,
2013-10-10 23:45:00,59.5,52.7,30.00,North,0,0.0,0.0,78,0.00,,,0.00,WUHU21623XXSP,2013-10-11 04:45:00,
2013-10-10 23:50:00,59.5,52.7,30.00,North,0,0.0,0.0,78,0.00,,,0.00,WUHU21623XXSP,2013-10-11 04:50:00,
2013-10-10 23:55:00,59.2,52.5,30.00,North,0,0.0,0.0,78,0.00,,,0.00,WUHU21623XXSP,2013-10-11 04:55:00,